sensor_id;sensor_type;location;lat;lon;timestamp;pressure;altitude;pressure_sealevel;temperature;humidity
9335;BME280;4706;41.844;26.082;2023-04-21T00:00:17;100340.88;;;15.50;86.92
9335;BME280;4706;41.844;26.082;2023-04-21T00:02:43;100347.50;;;15.58;86.39
9335;BME280;4706;41.844;26.082;2023-04-21T00:05:10;100337.66;;;15.60;85.74
9335;BME280;4706;41.844;26.082;2023-04-21T00:07:41;100331.50;;;15.42;87.13
9335;BME280;4706;41.844;26.082;2023-04-21T00:10:08;100330.13;;;15.27;87.60
9335;BME280;4706;41.844;26.082;2023-04-21T00:12:33;100335.47;;;15.33;86.63
9335;BME280;4706;41.844;26.082;2023-04-21T00:14:59;100327.38;;;15.27;85.50
9335;BME280;4706;41.844;26.082;2023-04-21T00:17:25;100324.59;;;15.06;85.90
9335;BME280;4706;41.844;26.082;2023-04-21T00:19:51;100332.53;;;15.08;87.12
9335;BME280;4706;41.844;26.082;2023-04-21T00:22:16;100328.78;;;15.13;86.06
9335;BME280;4706;41.844;26.082;2023-04-21T00:24:42;100328.84;;;15.25;85.49
9335;BME280;4706;41.844;26.082;2023-04-21T00:27:07;100321.25;;;15.34;84.99
9335;BME280;4706;41.844;26.082;2023-04-21T00:29:33;100314.59;;;15.35;83.95
9335;BME280;4706;41.844;26.082;2023-04-21T00:31:58;100308.97;;;15.23;82.24
9335;BME280;4706;41.844;26.082;2023-04-21T00:34:26;100327.78;;;15.17;82.21
9335;BME280;4706;41.844;26.082;2023-04-21T00:36:51;100322.63;;;15.07;83.06
9335;BME280;4706;41.844;26.082;2023-04-21T00:39:17;100322.63;;;15.07;82.77
9335;BME280;4706;41.844;26.082;2023-04-21T00:41:42;100316.03;;;15.20;81.47
9335;BME280;4706;41.844;26.082;2023-04-21T00:44:08;100305.09;;;14.73;83.19
9335;BME280;4706;41.844;26.082;2023-04-21T00:46:34;100304.41;;;14.55;84.49
9335;BME280;4706;41.844;26.082;2023-04-21T00:49:03;100303.00;;;14.32;85.85
9335;BME280;4706;41.844;26.082;2023-04-21T00:51:29;100304.25;;;14.43;86.12
9335;BME280;4706;41.844;26.082;2023-04-21T00:53:57;100306.31;;;14.64;85.31
9335;BME280;4706;41.844;26.082;2023-04-21T00:56:25;100299.38;;;14.78;84.82
9335;BME280;4706;41.844;26.082;2023-04-21T00:58:51;100306.19;;;14.81;84.52
9335;BME280;4706;41.844;26.082;2023-04-21T01:01:18;100294.81;;;14.74;84.29
9335;BME280;4706;41.844;26.082;2023-04-21T01:03:44;100286.59;;;14.65;84.97
9335;BME280;4706;41.844;26.082;2023-04-21T01:06:11;100297.31;;;14.67;85.61
9335;BME280;4706;41.844;26.082;2023-04-21T01:08:37;100287.06;;;14.67;85.79
9335;BME280;4706;41.844;26.082;2023-04-21T01:11:12;100291.38;;;14.77;84.92
9335;BME280;4706;41.844;26.082;2023-04-21T01:13:38;100291.34;;;14.86;84.39
9335;BME280;4706;41.844;26.082;2023-04-21T01:16:05;100284.72;;;14.99;83.05
9335;BME280;4706;41.844;26.082;2023-04-21T01:18:32;100279.84;;;14.96;82.68
9335;BME280;4706;41.844;26.082;2023-04-21T01:20:58;100287.69;;;15.15;81.77
9335;BME280;4706;41.844;26.082;2023-04-21T01:23:23;100287.41;;;15.07;82.20
9335;BME280;4706;41.844;26.082;2023-04-21T01:25:51;100279.31;;;15.02;81.49
9335;BME280;4706;41.844;26.082;2023-04-21T01:28:23;100290.41;;;15.02;81.64
9335;BME280;4706;41.844;26.082;2023-04-21T01:30:49;100287.44;;;14.87;82.41
9335;BME280;4706;41.844;26.082;2023-04-21T01:33:15;100291.53;;;14.80;83.31
9335;BME280;4706;41.844;26.082;2023-04-21T01:35:41;100285.84;;;14.77;83.35
9335;BME280;4706;41.844;26.082;2023-04-21T01:38:07;100286.53;;;14.74;83.04
9335;BME280;4706;41.844;26.082;2023-04-21T01:40:33;100290.50;;;14.64;83.93
9335;BME280;4706;41.844;26.082;2023-04-21T01:42:58;100282.44;;;14.50;85.34
9335;BME280;4706;41.844;26.082;2023-04-21T01:45:24;100287.69;;;14.34;86.70
9335;BME280;4706;41.844;26.082;2023-04-21T01:47:50;100285.03;;;14.47;85.47
9335;BME280;4706;41.844;26.082;2023-04-21T01:50:15;100297.19;;;14.63;84.65
9335;BME280;4706;41.844;26.082;2023-04-21T01:52:41;100290.56;;;14.55;84.21
9335;BME280;4706;41.844;26.082;2023-04-21T01:55:07;100303.06;;;14.62;85.11
9335;BME280;4706;41.844;26.082;2023-04-21T01:57:32;100294.34;;;14.42;86.62
9335;BME280;4706;41.844;26.082;2023-04-21T01:59:58;100295.78;;;14.48;85.50
9335;BME280;4706;41.844;26.082;2023-04-21T02:02:23;100294.00;;;14.52;84.67
9335;BME280;4706;41.844;26.082;2023-04-21T02:04:49;100294.34;;;14.42;85.87
9335;BME280;4706;41.844;26.082;2023-04-21T02:07:14;100290.63;;;14.38;85.66
9335;BME280;4706;41.844;26.082;2023-04-21T02:09:40;100291.63;;;14.33;85.31
9335;BME280;4706;41.844;26.082;2023-04-21T02:12:05;100292.88;;;14.36;84.67
9335;BME280;4706;41.844;26.082;2023-04-21T02:14:31;100295.63;;;14.45;84.20
9335;BME280;4706;41.844;26.082;2023-04-21T02:16:56;100293.28;;;14.26;85.14
9335;BME280;4706;41.844;26.082;2023-04-21T02:19:22;100293.31;;;14.17;85.30
9335;BME280;4706;41.844;26.082;2023-04-21T02:21:48;100291.31;;;14.26;84.87
9335;BME280;4706;41.844;26.082;2023-04-21T02:24:13;100285.94;;;14.30;84.28
9335;BME280;4706;41.844;26.082;2023-04-21T02:26:39;100274.44;;;14.19;83.99
9335;BME280;4706;41.844;26.082;2023-04-21T02:29:04;100284.19;;;14.17;83.87
9335;BME280;4706;41.844;26.082;2023-04-21T02:31:30;100282.88;;;14.23;83.75
9335;BME280;4706;41.844;26.082;2023-04-21T02:33:55;100289.47;;;14.39;83.03
9335;BME280;4706;41.844;26.082;2023-04-21T02:36:21;100284.88;;;14.43;83.08
9335;BME280;4706;41.844;26.082;2023-04-21T02:38:47;100287.50;;;14.40;82.50
9335;BME280;4706;41.844;26.082;2023-04-21T02:41:12;100282.63;;;14.37;81.73
9335;BME280;4706;41.844;26.082;2023-04-21T02:43:37;100269.34;;;14.30;81.74
9335;BME280;4706;41.844;26.082;2023-04-21T02:46:06;100276.50;;;14.31;81.65
9335;BME280;4706;41.844;26.082;2023-04-21T02:48:33;100283.84;;;14.27;82.53
9335;BME280;4706;41.844;26.082;2023-04-21T02:50:58;100286.22;;;14.37;81.30
9335;BME280;4706;41.844;26.082;2023-04-21T02:53:24;100294.81;;;14.44;81.28
9335;BME280;4706;41.844;26.082;2023-04-21T02:55:49;100293.03;;;14.40;81.34
9335;BME280;4706;41.844;26.082;2023-04-21T02:58:15;100301.34;;;14.40;81.59
9335;BME280;4706;41.844;26.082;2023-04-21T03:00:41;100297.97;;;14.34;82.04
9335;BME280;4706;41.844;26.082;2023-04-21T03:03:06;100299.38;;;14.40;81.58
9335;BME280;4706;41.844;26.082;2023-04-21T03:05:32;100311.13;;;14.37;82.34
9335;BME280;4706;41.844;26.082;2023-04-21T03:07:57;100292.56;;;14.38;82.60
9335;BME280;4706;41.844;26.082;2023-04-21T03:10:23;100304.31;;;14.34;82.48
9335;BME280;4706;41.844;26.082;2023-04-21T03:12:49;100299.78;;;14.21;83.58
9335;BME280;4706;41.844;26.082;2023-04-21T03:15:14;100298.66;;;14.22;81.84
9335;BME280;4706;41.844;26.082;2023-04-21T03:17:41;100279.22;;;14.01;80.66
9335;BME280;4706;41.844;26.082;2023-04-21T03:20:07;100296.16;;;13.91;81.31
9335;BME280;4706;41.844;26.082;2023-04-21T03:22:39;100288.59;;;13.71;82.11
9335;BME280;4706;41.844;26.082;2023-04-21T03:25:05;100300.63;;;13.66;83.01
9335;BME280;4706;41.844;26.082;2023-04-21T03:27:32;100301.91;;;13.69;82.44
9335;BME280;4706;41.844;26.082;2023-04-21T03:29:58;100303.84;;;13.68;82.75
9335;BME280;4706;41.844;26.082;2023-04-21T03:32:23;100296.38;;;13.69;82.85
9335;BME280;4706;41.844;26.082;2023-04-21T03:34:49;100296.38;;;13.77;82.51
9335;BME280;4706;41.844;26.082;2023-04-21T03:37:14;100293.91;;;13.84;82.06
9335;BME280;4706;41.844;26.082;2023-04-21T03:39:40;100297.13;;;13.95;81.48
9335;BME280;4706;41.844;26.082;2023-04-21T03:42:05;100299.75;;;13.92;82.17
9335;BME280;4706;41.844;26.082;2023-04-21T03:44:31;100300.72;;;13.96;82.23
9335;BME280;4706;41.844;26.082;2023-04-21T03:46:57;100308.97;;;14.04;81.55
9335;BME280;4706;41.844;26.082;2023-04-21T03:49:23;100298.56;;;14.01;80.59
9335;BME280;4706;41.844;26.082;2023-04-21T03:51:48;100305.75;;;13.94;80.69
9335;BME280;4706;41.844;26.082;2023-04-21T03:54:14;100297.81;;;13.83;79.82
9335;BME280;4706;41.844;26.082;2023-04-21T03:56:40;100321.06;;;13.82;80.10
9335;BME280;4706;41.844;26.082;2023-04-21T03:59:05;100331.63;;;13.89;80.02
9335;BME280;4706;41.844;26.082;2023-04-21T04:01:32;100329.34;;;14.00;79.53
9335;BME280;4706;41.844;26.082;2023-04-21T04:03:57;100325.06;;;14.02;79.09
9335;BME280;4706;41.844;26.082;2023-04-21T04:06:23;100332.84;;;14.18;79.03
9335;BME280;4706;41.844;26.082;2023-04-21T04:08:48;100337.59;;;14.08;79.12
9335;BME280;4706;41.844;26.082;2023-04-21T04:11:14;100333.13;;;13.78;81.00
9335;BME280;4706;41.844;26.082;2023-04-21T04:13:39;100334.63;;;13.58;81.49
9335;BME280;4706;41.844;26.082;2023-04-21T04:16:05;100336.53;;;13.57;82.58
9335;BME280;4706;41.844;26.082;2023-04-21T04:18:31;100335.75;;;13.48;84.56
9335;BME280;4706;41.844;26.082;2023-04-21T04:20:56;100342.22;;;13.61;85.07
9335;BME280;4706;41.844;26.082;2023-04-21T04:23:22;100342.56;;;13.33;86.45
9335;BME280;4706;41.844;26.082;2023-04-21T04:25:47;100331.19;;;13.35;86.97
9335;BME280;4706;41.844;26.082;2023-04-21T04:28:13;100338.19;;;13.58;85.89
9335;BME280;4706;41.844;26.082;2023-04-21T04:30:40;100353.47;;;13.73;86.26
9335;BME280;4706;41.844;26.082;2023-04-21T04:33:05;100351.63;;;13.86;84.96
9335;BME280;4706;41.844;26.082;2023-04-21T04:35:31;100347.03;;;14.07;81.29
9335;BME280;4706;41.844;26.082;2023-04-21T04:37:56;100339.84;;;14.15;81.10
9335;BME280;4706;41.844;26.082;2023-04-21T04:40:23;100342.25;;;14.25;81.07
9335;BME280;4706;41.844;26.082;2023-04-21T04:42:49;100344.09;;;14.60;79.39
9335;BME280;4706;41.844;26.082;2023-04-21T04:45:15;100341.44;;;14.72;80.24
9335;BME280;4706;41.844;26.082;2023-04-21T04:47:41;100349.16;;;14.87;79.48
9335;BME280;4706;41.844;26.082;2023-04-21T04:50:07;100339.22;;;14.86;80.20
9335;BME280;4706;41.844;26.082;2023-04-21T04:52:33;100345.88;;;15.15;78.71
9335;BME280;4706;41.844;26.082;2023-04-21T04:54:59;100326.75;;;15.01;79.27
9335;BME280;4706;41.844;26.082;2023-04-21T04:57:24;100346.69;;;15.36;76.80
9335;BME280;4706;41.844;26.082;2023-04-21T04:59:54;100347.56;;;15.28;77.94
9335;BME280;4706;41.844;26.082;2023-04-21T05:02:20;100354.13;;;15.44;78.49
9335;BME280;4706;41.844;26.082;2023-04-21T05:04:48;100352.47;;;15.64;77.46
9335;BME280;4706;41.844;26.082;2023-04-21T05:07:14;100354.84;;;15.74;77.47
9335;BME280;4706;41.844;26.082;2023-04-21T05:09:39;100349.78;;;15.76;77.47
9335;BME280;4706;41.844;26.082;2023-04-21T05:12:05;100349.53;;;15.69;78.42
9335;BME280;4706;41.844;26.082;2023-04-21T05:14:30;100347.50;;;15.91;77.55
9335;BME280;4706;41.844;26.082;2023-04-21T05:16:56;100346.88;;;16.06;76.82
9335;BME280;4706;41.844;26.082;2023-04-21T05:19:21;100349.78;;;16.22;76.11
9335;BME280;4706;41.844;26.082;2023-04-21T05:21:46;100347.03;;;16.34;76.48
9335;BME280;4706;41.844;26.082;2023-04-21T05:24:12;100346.81;;;16.51;75.76
9335;BME280;4706;41.844;26.082;2023-04-21T05:26:37;100339.78;;;16.66;75.58
9335;BME280;4706;41.844;26.082;2023-04-21T05:29:03;100346.84;;;16.76;73.91
9335;BME280;4706;41.844;26.082;2023-04-21T05:31:28;100344.75;;;16.97;71.62
9335;BME280;4706;41.844;26.082;2023-04-21T05:33:54;100335.13;;;16.95;72.64
9335;BME280;4706;41.844;26.082;2023-04-21T05:36:19;100338.09;;;17.14;71.56
9335;BME280;4706;41.844;26.082;2023-04-21T05:38:45;100340.66;;;17.19;71.75
9335;BME280;4706;41.844;26.082;2023-04-21T05:41:11;100341.78;;;17.31;72.20
9335;BME280;4706;41.844;26.082;2023-04-21T05:43:36;100336.63;;;17.45;72.17
9335;BME280;4706;41.844;26.082;2023-04-21T05:46:03;100339.97;;;17.51;71.59
9335;BME280;4706;41.844;26.082;2023-04-21T05:48:32;100339.59;;;17.64;72.41
9335;BME280;4706;41.844;26.082;2023-04-21T05:51:07;100318.56;;;17.67;70.73
9335;BME280;4706;41.844;26.082;2023-04-21T05:53:33;100330.72;;;17.75;70.74
9335;BME280;4706;41.844;26.082;2023-04-21T05:55:58;100326.22;;;17.70;71.68
9335;BME280;4706;41.844;26.082;2023-04-21T05:58:24;100332.25;;;17.72;71.21
9335;BME280;4706;41.844;26.082;2023-04-21T06:00:49;100337.88;;;17.88;69.70
9335;BME280;4706;41.844;26.082;2023-04-21T06:03:15;100332.84;;;17.93;71.03
9335;BME280;4706;41.844;26.082;2023-04-21T06:05:40;100338.78;;;18.08;70.98
9335;BME280;4706;41.844;26.082;2023-04-21T06:08:06;100348.00;;;18.24;69.44
9335;BME280;4706;41.844;26.082;2023-04-21T06:10:32;100339.19;;;18.22;70.13
9335;BME280;4706;41.844;26.082;2023-04-21T06:12:57;100335.59;;;18.22;70.62
9335;BME280;4706;41.844;26.082;2023-04-21T06:15:23;100347.34;;;18.47;70.23
9335;BME280;4706;41.844;26.082;2023-04-21T06:17:52;100331.44;;;18.63;68.31
9335;BME280;4706;41.844;26.082;2023-04-21T06:20:19;100343.94;;;18.85;68.64
9335;BME280;4706;41.844;26.082;2023-04-21T06:22:45;100341.69;;;18.90;68.53
9335;BME280;4706;41.844;26.082;2023-04-21T06:25:10;100340.47;;;19.07;66.50
9335;BME280;4706;41.844;26.082;2023-04-21T06:27:36;100338.75;;;19.03;65.33
9335;BME280;4706;41.844;26.082;2023-04-21T06:30:01;100340.56;;;19.11;64.60
9335;BME280;4706;41.844;26.082;2023-04-21T06:32:27;100335.34;;;19.09;66.80
9335;BME280;4706;41.844;26.082;2023-04-21T06:34:52;100337.31;;;19.63;63.97
9335;BME280;4706;41.844;26.082;2023-04-21T06:37:17;100339.88;;;19.72;65.11
9335;BME280;4706;41.844;26.082;2023-04-21T06:39:43;100349.53;;;19.98;63.86
9335;BME280;4706;41.844;26.082;2023-04-21T06:42:08;100343.00;;;20.32;62.08
9335;BME280;4706;41.844;26.082;2023-04-21T06:44:34;100348.25;;;20.60;62.20
9335;BME280;4706;41.844;26.082;2023-04-21T06:47:00;100354.59;;;20.80;61.71
9335;BME280;4706;41.844;26.082;2023-04-21T06:49:25;100348.13;;;21.03;60.89
9335;BME280;4706;41.844;26.082;2023-04-21T06:51:51;100347.63;;;21.24;59.29
9335;BME280;4706;41.844;26.082;2023-04-21T06:54:16;100344.94;;;21.31;59.43
9335;BME280;4706;41.844;26.082;2023-04-21T06:56:42;100355.94;;;21.47;58.75
9335;BME280;4706;41.844;26.082;2023-04-21T06:59:08;100353.13;;;21.77;57.89
9335;BME280;4706;41.844;26.082;2023-04-21T07:01:34;100358.56;;;22.00;56.95
9335;BME280;4706;41.844;26.082;2023-04-21T07:04:00;100359.44;;;22.07;56.42
9335;BME280;4706;41.844;26.082;2023-04-21T07:06:25;100351.09;;;22.11;56.29
9335;BME280;4706;41.844;26.082;2023-04-21T07:08:51;100346.78;;;22.17;56.08
9335;BME280;4706;41.844;26.082;2023-04-21T07:11:16;100356.03;;;22.21;55.95
9335;BME280;4706;41.844;26.082;2023-04-21T07:13:42;100352.25;;;22.47;54.48
9335;BME280;4706;41.844;26.082;2023-04-21T07:16:07;100332.16;;;22.35;53.53
9335;BME280;4706;41.844;26.082;2023-04-21T07:18:33;100346.03;;;22.68;52.82
9335;BME280;4706;41.844;26.082;2023-04-21T07:20:59;100346.59;;;22.88;51.39
9335;BME280;4706;41.844;26.082;2023-04-21T07:23:25;100353.94;;;23.03;51.46
9335;BME280;4706;41.844;26.082;2023-04-21T07:25:50;100346.00;;;23.20;49.38
9335;BME280;4706;41.844;26.082;2023-04-21T07:28:16;100349.75;;;23.45;49.17
9335;BME280;4706;41.844;26.082;2023-04-21T07:30:41;100352.28;;;23.72;47.89
9335;BME280;4706;41.844;26.082;2023-04-21T07:33:07;100349.91;;;23.78;47.04
9335;BME280;4706;41.844;26.082;2023-04-21T07:35:33;100352.34;;;23.90;47.54
9335;BME280;4706;41.844;26.082;2023-04-21T07:37:58;100347.97;;;24.17;45.96
9335;BME280;4706;41.844;26.082;2023-04-21T07:40:24;100335.56;;;24.15;45.78
9335;BME280;4706;41.844;26.082;2023-04-21T07:42:50;100341.97;;;24.19;45.78
9335;BME280;4706;41.844;26.082;2023-04-21T07:45:15;100354.38;;;24.11;46.74
9335;BME280;4706;41.844;26.082;2023-04-21T07:47:41;100351.22;;;24.23;44.80
9335;BME280;4706;41.844;26.082;2023-04-21T07:50:07;100350.41;;;24.30;45.96
9335;BME280;4706;41.844;26.082;2023-04-21T07:52:33;100354.06;;;24.37;45.81
9335;BME280;4706;41.844;26.082;2023-04-21T07:54:58;100335.19;;;24.52;44.97
9335;BME280;4706;41.844;26.082;2023-04-21T07:57:24;100342.81;;;24.77;43.49
9335;BME280;4706;41.844;26.082;2023-04-21T07:59:50;100338.75;;;25.03;44.02
9335;BME280;4706;41.844;26.082;2023-04-21T08:02:16;100327.06;;;25.22;42.45
9335;BME280;4706;41.844;26.082;2023-04-21T08:04:41;100339.13;;;25.23;41.62
9335;BME280;4706;41.844;26.082;2023-04-21T08:07:07;100323.84;;;25.24;41.39
9335;BME280;4706;41.844;26.082;2023-04-21T08:09:34;100323.81;;;25.31;41.02
9335;BME280;4706;41.844;26.082;2023-04-21T08:11:59;100321.38;;;25.47;39.71
9335;BME280;4706;41.844;26.082;2023-04-21T08:14:26;100321.25;;;25.65;40.31
9335;BME280;4706;41.844;26.082;2023-04-21T08:16:52;100312.13;;;25.47;38.93
9335;BME280;4706;41.844;26.082;2023-04-21T08:19:18;100301.75;;;25.15;40.01
9335;BME280;4706;41.844;26.082;2023-04-21T08:21:44;100311.00;;;25.23;41.43
9335;BME280;4706;41.844;26.082;2023-04-21T08:24:10;100310.16;;;25.29;41.53
9335;BME280;4706;41.844;26.082;2023-04-21T08:26:35;100306.06;;;25.52;39.87
9335;BME280;4706;41.844;26.082;2023-04-21T08:29:01;100306.34;;;25.72;39.55
9335;BME280;4706;41.844;26.082;2023-04-21T08:31:26;100305.69;;;25.42;38.95
9335;BME280;4706;41.844;26.082;2023-04-21T08:33:52;100302.50;;;25.33;40.13
9335;BME280;4706;41.844;26.082;2023-04-21T08:36:18;100302.81;;;25.53;39.81
9335;BME280;4706;41.844;26.082;2023-04-21T08:38:44;100285.06;;;25.63;39.80
9335;BME280;4706;41.844;26.082;2023-04-21T08:41:10;100296.22;;;25.92;39.82
9335;BME280;4706;41.844;26.082;2023-04-21T08:43:35;100294.47;;;26.09;39.03
9335;BME280;4706;41.844;26.082;2023-04-21T08:46:02;100289.34;;;25.93;36.06
9335;BME280;4706;41.844;26.082;2023-04-21T08:48:31;100284.66;;;25.65;37.27
9335;BME280;4706;41.844;26.082;2023-04-21T08:51:00;100289.38;;;25.89;39.04
9335;BME280;4706;41.844;26.082;2023-04-21T08:53:27;100287.22;;;26.11;37.98
9335;BME280;4706;41.844;26.082;2023-04-21T08:55:54;100281.78;;;26.35;37.42
9335;BME280;4706;41.844;26.082;2023-04-21T08:58:21;100279.47;;;26.71;36.50
9335;BME280;4706;41.844;26.082;2023-04-21T09:00:49;100276.84;;;26.91;35.63
9335;BME280;4706;41.844;26.082;2023-04-21T09:03:23;100265.38;;;27.05;35.33
9335;BME280;4706;41.844;26.082;2023-04-21T09:06:03;100264.66;;;27.35;34.71
9335;BME280;4706;41.844;26.082;2023-04-21T09:08:29;100263.88;;;27.62;34.26
9335;BME280;4706;41.844;26.082;2023-04-21T09:10:57;100256.84;;;27.47;33.98
9335;BME280;4706;41.844;26.082;2023-04-21T09:13:34;100260.59;;;27.36;35.58
9335;BME280;4706;41.844;26.082;2023-04-21T09:16:05;100240.09;;;27.59;35.13
9335;BME280;4706;41.844;26.082;2023-04-21T09:18:38;100249.03;;;27.85;35.25
9335;BME280;4706;41.844;26.082;2023-04-21T09:23:30;100261.22;;;28.32;33.89
9335;BME280;4706;41.844;26.082;2023-04-21T09:25:55;100251.69;;;28.46;33.55
9335;BME280;4706;41.844;26.082;2023-04-21T09:28:21;100251.94;;;28.55;33.46
9335;BME280;4706;41.844;26.082;2023-04-21T09:30:46;100252.06;;;28.48;33.28
9335;BME280;4706;41.844;26.082;2023-04-21T09:33:16;100236.19;;;28.54;33.97
9335;BME280;4706;41.844;26.082;2023-04-21T09:35:44;100253.38;;;28.44;33.51
9335;BME280;4706;41.844;26.082;2023-04-21T09:38:11;100243.31;;;28.63;33.16
9335;BME280;4706;41.844;26.082;2023-04-21T09:40:37;100238.06;;;28.61;32.14
9335;BME280;4706;41.844;26.082;2023-04-21T09:43:03;100242.03;;;28.67;32.28
9335;BME280;4706;41.844;26.082;2023-04-21T09:45:29;100240.97;;;28.58;33.65
9335;BME280;4706;41.844;26.082;2023-04-21T09:47:59;100238.59;;;28.76;32.79
9335;BME280;4706;41.844;26.082;2023-04-21T09:50:27;100236.41;;;29.07;32.95
9335;BME280;4706;41.844;26.082;2023-04-21T09:52:55;100234.66;;;29.13;32.34
9335;BME280;4706;41.844;26.082;2023-04-21T09:55:27;100224.53;;;29.32;32.10
9335;BME280;4706;41.844;26.082;2023-04-21T09:57:58;100222.03;;;29.54;30.50
9335;BME280;4706;41.844;26.082;2023-04-21T10:00:26;100221.91;;;29.61;30.48
9335;BME280;4706;41.844;26.082;2023-04-21T10:02:53;100214.22;;;29.78;30.61
9335;BME280;4706;41.844;26.082;2023-04-21T10:05:19;100223.34;;;29.86;30.29
9335;BME280;4706;41.844;26.082;2023-04-21T10:07:46;100217.16;;;29.91;30.13
9335;BME280;4706;41.844;26.082;2023-04-21T10:10:32;100215.09;;;30.08;30.25
9335;BME280;4706;41.844;26.082;2023-04-21T10:13:00;100211.41;;;29.94;29.33
9335;BME280;4706;41.844;26.082;2023-04-21T10:15:36;100209.78;;;29.93;28.97
9335;BME280;4706;41.844;26.082;2023-04-21T10:26:04;100206.56;;;30.57;29.26
9335;BME280;4706;41.844;26.082;2023-04-21T10:31:20;100209.94;;;30.52;29.05
9335;BME280;4706;41.844;26.082;2023-04-21T10:36:33;100205.88;;;30.04;28.79
9335;BME280;4706;41.844;26.082;2023-04-21T10:39:01;100201.72;;;29.92;30.40
9335;BME280;4706;41.844;26.082;2023-04-21T10:41:33;100204.72;;;30.01;28.56
9335;BME280;4706;41.844;26.082;2023-04-21T10:44:00;100200.22;;;30.36;28.36
9335;BME280;4706;41.844;26.082;2023-04-21T10:46:36;100195.69;;;30.68;28.80
9335;BME280;4706;41.844;26.082;2023-04-21T10:49:09;100190.72;;;30.88;26.56
9335;BME280;4706;41.844;26.082;2023-04-21T10:54:35;100195.41;;;31.08;25.53
9335;BME280;4706;41.844;26.082;2023-04-21T10:57:05;100193.25;;;31.25;24.24
9335;BME280;4706;41.844;26.082;2023-04-21T10:59:31;100189.16;;;31.13;25.18
9335;BME280;4706;41.844;26.082;2023-04-21T11:01:58;100188.44;;;30.96;25.73
9335;BME280;4706;41.844;26.082;2023-04-21T11:04:23;100186.03;;;30.94;26.72
9335;BME280;4706;41.844;26.082;2023-04-21T11:07:17;100188.97;;;30.78;26.89
9335;BME280;4706;41.844;26.082;2023-04-21T11:09:45;100188.88;;;30.94;25.42
9335;BME280;4706;41.844;26.082;2023-04-21T11:12:12;100185.47;;;30.87;26.18
9335;BME280;4706;41.844;26.082;2023-04-21T11:14:40;100191.25;;;30.38;25.92
9335;BME280;4706;41.844;26.082;2023-04-21T11:17:14;100186.88;;;30.20;26.77
9335;BME280;4706;41.844;26.082;2023-04-21T11:19:40;100189.59;;;30.08;27.55
9335;BME280;4706;41.844;26.082;2023-04-21T11:22:06;100191.53;;;30.11;28.11
9335;BME280;4706;41.844;26.082;2023-04-21T11:24:31;100181.41;;;30.42;27.85
9335;BME280;4706;41.844;26.082;2023-04-21T11:26:57;100189.09;;;30.58;27.96
9335;BME280;4706;41.844;26.082;2023-04-21T11:29:25;100190.22;;;30.77;26.54
9335;BME280;4706;41.844;26.082;2023-04-21T11:31:50;100190.47;;;30.05;26.27
9335;BME280;4706;41.844;26.082;2023-04-21T11:34:21;100191.97;;;29.76;28.39
9335;BME280;4706;41.844;26.082;2023-04-21T11:36:47;100181.81;;;29.79;29.16
9335;BME280;4706;41.844;26.082;2023-04-21T11:39:15;100184.75;;;29.56;29.10
9335;BME280;4706;41.844;26.082;2023-04-21T11:41:45;100181.16;;;28.99;29.29
9335;BME280;4706;41.844;26.082;2023-04-21T11:44:11;100182.38;;;28.78;27.98
9335;BME280;4706;41.844;26.082;2023-04-21T11:46:43;100176.31;;;28.96;27.42
9335;BME280;4706;41.844;26.082;2023-04-21T11:49:15;100178.31;;;29.19;27.10
9335;BME280;4706;41.844;26.082;2023-04-21T11:51:42;100181.44;;;29.61;26.64
9335;BME280;4706;41.844;26.082;2023-04-21T11:54:10;100170.69;;;30.01;26.40
9335;BME280;4706;41.844;26.082;2023-04-21T11:56:41;100183.38;;;30.29;25.51
9335;BME280;4706;41.844;26.082;2023-04-21T11:59:08;100177.84;;;30.38;26.04
9335;BME280;4706;41.844;26.082;2023-04-21T12:01:51;100172.19;;;30.38;26.00
9335;BME280;4706;41.844;26.082;2023-04-21T12:04:19;100159.69;;;30.65;25.89
9335;BME280;4706;41.844;26.082;2023-04-21T12:06:46;100164.09;;;30.82;24.70
9335;BME280;4706;41.844;26.082;2023-04-21T12:09:19;100156.66;;;30.72;24.59
9335;BME280;4706;41.844;26.082;2023-04-21T12:11:55;100159.56;;;30.85;24.77
9335;BME280;4706;41.844;26.082;2023-04-21T12:14:27;100160.69;;;30.87;24.98
9335;BME280;4706;41.844;26.082;2023-04-21T12:16:55;100145.38;;;30.68;23.36
9335;BME280;4706;41.844;26.082;2023-04-21T12:19:41;100154.88;;;30.49;23.21
9335;BME280;4706;41.844;26.082;2023-04-21T12:22:17;100137.72;;;30.23;25.06
9335;BME280;4706;41.844;26.082;2023-04-21T12:24:43;100140.97;;;30.38;24.81
9335;BME280;4706;41.844;26.082;2023-04-21T12:27:09;100136.75;;;30.59;25.24
9335;BME280;4706;41.844;26.082;2023-04-21T12:29:35;100137.50;;;30.76;23.68
9335;BME280;4706;41.844;26.082;2023-04-21T12:32:03;100129.59;;;30.55;26.92
9335;BME280;4706;41.844;26.082;2023-04-21T12:34:29;100141.81;;;30.06;28.57
9335;BME280;4706;41.844;26.082;2023-04-21T12:36:54;100147.16;;;29.71;29.19
9335;BME280;4706;41.844;26.082;2023-04-21T12:39:20;100145.06;;;29.39;29.38
9335;BME280;4706;41.844;26.082;2023-04-21T12:41:46;100151.63;;;29.00;29.80
9335;BME280;4706;41.844;26.082;2023-04-21T12:44:13;100151.72;;;28.73;29.35
9335;BME280;4706;41.844;26.082;2023-04-21T12:46:39;100135.72;;;28.66;29.00
9335;BME280;4706;41.844;26.082;2023-04-21T12:49:06;100154.19;;;28.91;29.07
9335;BME280;4706;41.844;26.082;2023-04-21T12:51:33;100151.81;;;29.09;28.05
9335;BME280;4706;41.844;26.082;2023-04-21T12:53:59;100155.06;;;28.88;27.72
9335;BME280;4706;41.844;26.082;2023-04-21T12:56:25;100156.13;;;28.34;28.79
9335;BME280;4706;41.844;26.082;2023-04-21T12:58:51;100159.56;;;28.22;28.96
9335;BME280;4706;41.844;26.082;2023-04-21T13:01:16;100159.25;;;28.16;28.54
9335;BME280;4706;41.844;26.082;2023-04-21T13:03:42;100155.81;;;28.05;29.25
9335;BME280;4706;41.844;26.082;2023-04-21T13:06:09;100156.31;;;28.23;29.31
9335;BME280;4706;41.844;26.082;2023-04-21T13:08:34;100158.09;;;28.37;28.05
9335;BME280;4706;41.844;26.082;2023-04-21T13:11:01;100145.44;;;27.75;29.43
9335;BME280;4706;41.844;26.082;2023-04-21T13:13:26;100141.44;;;27.45;29.94
9335;BME280;4706;41.844;26.082;2023-04-21T13:15:52;100151.63;;;27.12;31.32